Terminal Aerodrome Forecast
Issued by NWS Louisville, KY

Home | Current Version | Previous Version | Text Only | Print | Product List | Glossary On
Versions: 1 2 3 4 5 6 7 8 9 10 11 12 13
000
FTUS43 KLMK 071700
TAFLEX
TAF
KLEX 071738Z 0718/0818 22010G22KT P6SM -SHRA FEW020 BKN035
     FM072200 23013G20KT 6SM -SHRA VCTS BKN040CB
      TEMPO 0722/0802 3SM -TSRA BKN015CB
     FM080200 22007KT P6SM -SHRA BKN040
     FM081100 22009KT P6SM -SHRA VCTS SCT007 BKN015CB
     FM081400 21010KT P6SM VCSH BKN015=

USA.gov is the U.S. government's official web portal to all federal, state and local government web resources and services.